Tiempo atmosférico en la estación meteorológica de Madrid Aeropuerto, Madrid (609 m.)



Fecha
DESCASC
Temp. máxima en grados centígrados (hora)
DESCASC
Temp. mínima en grados centígrados (hora)
DESCASC
Temp. media en grados centígrados
DESCASC
Racha de viento máxima en m/sg (hora)
DESCASC
Velocidad máxima media en intervalos de 10 minutos(hora)
DESCASC
Precipitaciones diarias en mm
DESCASC
Precipitaciones de 00:00 a 06:00 en mm
DESCASC
Precipitaciones de 06:00 a 12:00 en mm
DESCASC
Precipitaciones de 12:00 a 18:00 en mm
DESCASC
Precipitaciones de 18:00 a 24:00 en mm
DESCASC
11-12-2019 9.9 (16:50) 0.9 (00:00) 5.4 11.39 (21:00) 8.33 (21:10) 0.4 0 0.4 0 0
10-12-2019 7.2 (16:00) 0.9 (23:40) 4 5 (13:10) 3.33 (10:40) 0 0 0 0 0
09-12-2019 11.7 (14:50) 3.7 (23:40) 7.7 6.67 (11:30) 3.89 (12:20) 0 0 0 0 0
08-12-2019 6.5 (23:50) 1.9 (00:00) 4.2 3.61 (02:00) 2.5 (02:00) 2.1 0 0 2.1 0
07-12-2019 14.2 (15:40) 0.6 (00:00) 7.4 4.17 (02:20) 2.78 (03:40) 0 0 0 0 0
06-12-2019 14.4 (15:10) 4.6 (00:00) 9.5 4.72 (03:40) 3.61 (10:20) 0 0 0 0 0
05-12-2019 13.2 (14:20) 7.8 (00:00) 10.5 9.72 (09:10) 6.11 (01:40) 0 0 0 0 0
04-12-2019 11.9 (15:20) 5.3 (00:00) 8.6 9.72 (15:30) 5.28 (14:20) 3.5 1 2.3 0.2 0
03-12-2019 10.9 (15:30) 2.5 (00:00) 6.7 7.78 (11:20) 4.72 (10:40) 0 0 0 0 0
02-12-2019 11.7 (14:40) 5.4 (00:00) 8.5 11.67 (12:40) 6.67 (14:10) 0 0 0 0 0
01-12-2019 9.4 (16:00) 5.8 (00:00) 7.6 6.67 (23:30) 3.89 (02:40) 14.4 0 1 2.7 10.7
30-11-2019 15.9 (15:30) 7.4 (00:00) 11.6 16.94 (17:20) 8.33 (15:40) 7.5 0 0 0 7.5
29-11-2019 15.4 (14:20) 11.7 (00:00) 13.5 11.39 (10:10) 8.33 (05:20) 0.5 0 0 0.5 0
28-11-2019 12.6 (12:30) 8.6 (00:00) 10.6 15.28 (10:30) 8.61 (21:00) 0 0 0 0 0
27-11-2019 14.1 (14:20) 10.4 (00:00) 12.3 13.89 (15:00) 8.61 (00:10) 0 0 0 0 0
26-11-2019 13.8 (16:30) 8.8 (00:00) 11.3 14.44 (22:50) 10 (22:50) 1.4 0 0 0 1.4
25-11-2019 -- (--) -- (--) -- -- (--) -- (--) -- 0.1 0 -- 0
24-11-2019 13.5 (15:40) 7 (00:00) 10.3 11.67 (05:00) 9.17 (05:00) 0 0 0 0 0
23-11-2019 12.6 (14:10) 7.7 (00:00) 10.2 18.89 (09:10) 11.94 (09:10) 0 0 0 0 0
22-11-2019 12.4 (16:30) 7.3 (00:00) 9.8 15 (12:20) 9.17 (12:40) 5.1 0 2.8 1.8 0.5
21-11-2019 10.7 (15:30) 5.9 (00:00) 8.3 7.78 (15:00) 4.17 (15:40) 1.3 0 0.7 0.6 0
20-11-2019 9.1 (15:40) -0.6 (-00:0) 4.3 7.22 (16:20) 4.17 (17:10) 3.6 0 0 1 2.6
19-11-2019 10.5 (15:10) -2.4 (-00:0) 4 9.72 (15:50) 3.89 (14:50) 0 0 0 0 0
18-11-2019 11.9 (15:40) 2 (00:00) 6.9 12.5 (15:40) 8.33 (15:10) 0 0 0 0 0
17-11-2019 8.8 (15:20) 0.5 (00:00) 4.7 15 (12:40) 7.5 (20:20) 2 0 0 0.1 1.9
16-11-2019 11.7 (14:50) 0.3 (00:00) 6 10.83 (22:00) 7.78 (22:00) 0 0 0 0 0
15-11-2019 10 (15:10) 3.2 (00:00) 6.6 11.39 (02:50) 7.78 (14:00) 0 0 0 0 0

Gráficas

Temp. máximas Temp. mínimas Temp. medias Precipitaciones Rachas de viento máximas Velocidades máximas media en intervalos de 10 minutos

Datos horarios

Fecha y hora oficial Temperatura (ºC) Velocidad del viento (km/h) Dirección del viento Racha (km/h) Dirección de racha Precipitación (mm) Presión (hPa) Tendencia (hPa) Humedad (%)
2019-12-14 23:00:00 7 9 Este 13 Sudeste 0 950.2 -0.3 92
2019-12-14 22:00:00 7.7 13 Sudeste 18 Sur 0 950.3 0 89
2019-12-14 21:00:00 8.1 13 Sudeste 21 Sur 0 950.4 0.3 86
2019-12-14 20:00:00 9.3 7 Sur 22 Sudoeste 0 950.5 0.4 78
2019-12-14 19:00:00 9.8 8 Sur 35 Sudoeste 0 950.3 0.3 75
2019-12-14 18:00:00 10.7 19 Sudoeste 42 Sudoeste 0 950.1 0 70
2019-12-14 17:00:00 11.9 17 Sur 42 Sudoeste 0 950.1 -0.7 66
2019-12-14 16:00:00 12.1 21 Sur 33 Sudoeste 0 950 -1.4 66
2019-12-14 15:00:00 12.4 17 Sudoeste 26 Sudoeste 0 950.1 -2 66
2019-12-14 14:00:00 9.8 4 Norte 18 Noroeste 0 950.8 -1.3 81
2019-12-14 13:00:00 8.4 11 Norte 17 Norte 0 951.4 -0.5 88
2019-12-14 12:00:00 6.8 12 Noroeste 17 Noroeste 0 952.1 0.7 94
2019-12-14 11:00:00 5.7 10 Norte 13 Norte 0 952.1 1.3 95
2019-12-14 10:00:00 4.7 12 Norte 15 Norte 0 951.9 1.6 94
2019-12-14 09:00:00 3.7 9 Norte 22 Sudoeste 0 951.4 1.5 92
2019-12-14 08:00:00 7.9 18 Sudoeste 28 Sudoeste 0 950.8 1 90
2019-12-14 07:00:00 7.9 17 Sudoeste 26 Sudoeste 0 950.3 0.2 90
2019-12-14 06:00:00 8.4 21 Sudoeste 26 Sudoeste 0 949.9 -0.2 90
2019-12-14 05:00:00 8.3 14 Sudoeste 26 Sudoeste 0 949.8 -0.5 89
2019-12-14 04:00:00 8.2 15 Sur 24 Sudoeste 0 950.1 -0.2 91
2019-12-14 03:00:00 8.8 12 Sur 21 Sur 0 950.1 -0.2 90
2019-12-14 02:00:00 9 9 Sudeste 35 Sudoeste 0 950.3 0.5 89
2019-12-14 01:00:00 9.7 14 Sur 35 Sudoeste 0 950.3 0.9 86
2019-12-14 00:00:00 10.8 28 Sudoeste 46 Sudoeste 0 950.3 1.2 76
2019-12-13 23:00:00 10.9 21 Sur 30 Sur 0 949.8 0.9 77
2019-12-13 22:00:00 12.1 13 Sur 39 Oeste 0 949.4 0.9 66
2019-12-13 21:00:00 13.7 30 Oeste 54 Oeste 0 949.1 1.1 54
2019-12-13 20:00:00 13.6 22 Sudoeste 39 Sudoeste 0 948.9 1.6 56
2019-12-13 19:00:00 14 19 Sudoeste 35 Sudoeste 0 948.5 0.7 57
2019-12-13 18:00:00 14.8 24 Oeste 59 Oeste 0 948 0.5 59
2019-12-13 17:00:00 15.3 44 Oeste 61 Oeste 0 947.3 0.1 59
2019-12-13 16:00:00 15.7 39 Oeste 52 Oeste 0 947.8 0.8 59
2019-12-13 15:00:00 15.5 31 Oeste 52 Oeste 0 947.5 0.2 62
2019-12-13 14:00:00 15.2 36 Sudoeste 68 Sudoeste 0 947.2 -0.1 63
2019-12-13 13:00:00 14.5 43 Sur 63 Sur 0 947 1 64
2019-12-13 12:00:00 14.1 36 Sur 58 Sur 0 947.3 2.2 63
2019-12-13 11:00:00 15 18 Sudoeste 50 Oeste 0 947.3 3.2 55
2019-12-13 10:00:00 13.2 28 Oeste 63 Oeste 0 946 2.4 59
2019-12-13 09:00:00 13.1 55 Oeste 78 Oeste 0 945.1 1.6 56
2019-12-13 08:00:00 12.8 26 Oeste 63 Oeste 0 944.1 0.3 64
2019-12-13 07:00:00 13.3 45 Oeste 61 Oeste 0 943.6 -0.8 62
2019-12-13 06:00:00 13.9 32 Oeste 67 Oeste 0 943.5 -0.8 64
2019-12-13 05:00:00 13.9 50 Oeste 72 Oeste 0 943.8 -0.4 66
2019-12-13 04:00:00 12.7 44 Oeste 67 Oeste 0 944.4 -0.4 78
2019-12-13 03:00:00 11.1 30 Sudoeste 41 Sudoeste 0 944.3 -0.7 88
2019-12-13 02:00:00 10.7 26 Sudoeste 37 Oeste 0 944.2 -1.1 88
2019-12-13 01:00:00 10.6 30 Oeste 58 Sudoeste 0 944.8 -0.1 88
2019-12-13 00:00:00 10.2 32 Sudoeste 42 Sudoeste 0 945 -0.3 89
2019-12-12 23:00:00 10 24 Sudoeste 61 Sudoeste 0 945.3 -0.5 87
2019-12-12 22:00:00 9.7 26 Sudoeste 45 Sudoeste 0 944.9 -1 86
2019-12-12 21:00:00 9.5 28 Sudoeste 50 Sudoeste 0 945.3 -1.1 86
2019-12-12 20:00:00 9.1 31 Sudoeste 52 Sudoeste 0 945.8 -1.1 87
2019-12-12 19:00:00 8.9 35 Sudoeste 54 Sudoeste 0 945.9 -1.8 88
2019-12-12 18:00:00 8.9 36 Sudoeste 54 Oeste 0 946.4 -2.2 84
2019-12-12 17:00:00 8.5 35 Sudoeste 55 Sudoeste 0 946.9 -2.9 82
2019-12-12 16:00:00 8 35 Sudoeste 63 Sudoeste 0 947.7 -3 82
2019-12-12 15:00:00 7.9 30 Sudoeste 42 Oeste 0 948.6 -3.4 82
2019-12-12 14:00:00 7.9 30 Sudoeste 39 Sudoeste 0 949.8 -3.2 78
2019-12-12 13:00:00 7.9 17 Sudoeste 39 Sudoeste 0 950.7 -2.5 74
2019-12-12 12:00:00 7.1 18 Sur 41 Sudoeste 0 952 -1.1 76
2019-12-12 11:00:00 6.3 19 Sur 48 Sudoeste 0 953 -0.1 78
2019-12-12 10:00:00 5.1 17 Sur 21 Sur 0 953.2 -0.2 81
2019-12-12 09:00:00 4.6 10 Sur 24 Sur 0 953.1 -0.4 79
2019-12-12 08:00:00 5.3 17 Sur 35 Sudoeste 0 953.1 -0.9 73
2019-12-12 07:00:00 6.5 18 Sudoeste 32 Oeste 0 953.4 -1 69
2019-12-12 06:00:00 7 25 Oeste 37 Oeste 0 953.5 -1.6 68
2019-12-12 05:00:00 6.6 15 Sudoeste 28 Oeste 0 954 -1.5 69
2019-12-12 04:00:00 7.5 23 Oeste 35 Oeste 0 954.4 -1.5 62
2019-12-12 03:00:00 7.3 24 Oeste 39 Oeste 0 955.1 -1.1 64
2019-12-12 02:00:00 6.8 18 Oeste 26 Sudoeste 0 955.5 -0.4 66
2019-12-12 01:00:00 6.8 21 Sudoeste 30 Sudoeste 0 955.9 -0.1 65
2019-12-12 00:00:00 7.2 16 Sudoeste 37 Oeste 0 956.2 0.2 61
2019-12-11 23:00:00 7.6 23 Oeste 33 Oeste 0 955.9 -0.4 59
2019-12-11 22:00:00 7.4 22 Oeste 41 Oeste 0 956 -0.1 60
2019-12-11 21:00:00 7.7 28 Oeste 41 Oeste 0 956 0.8 62
2019-12-11 20:00:00 7.4 25 Oeste 37 Oeste 0 956.3 1.6 65
2019-12-11 19:00:00 7.6 10 Oeste 22 Sudoeste 0 956.1 1.7 67
2019-12-11 18:00:00 8.5 13 Sur 22 Sur 0 955.2 0.9 76
2019-12-11 17:00:00 9.7 9 Sur 15 Sudoeste 0 954.7 0.6 74
2019-12-11 16:00:00 8.9 7 Este 18 Este 0 954.4 -0.4 80
2019-12-11 15:00:00 9.1 8 Este 15 Este 0 954.3 -0.9 82
2019-12-11 14:00:00 7.4 8 Sudeste 15 Sudeste 0 954.1 -1.7 89
2019-12-11 13:00:00 5.6 7 Este 22 Sudoeste 0 954.8 -0.3 97
2019-12-11 12:00:00 4.4 14 Sur 21 Sur 0.4 955.2 0.5 97
2019-12-11 11:00:00 4.1 10 Sur 18 Sur 0 955.8 1 97
2019-12-11 10:00:00 4 10 Sur 15 Sur 0 955.1 0.4 97
2019-12-11 09:00:00 3.9 9 Sur 13 Sudeste 0 954.7 -0.2 97
2019-12-11 08:00:00 3.7 0 Calma 8 Sudeste 0 954.8 -0.6 97
2019-12-11 07:00:00 3.5 5 Este 8 Este 0 954.7 -1.1 97
2019-12-11 06:00:00 3.2 3 Este 8 Sudeste 0 954.9 -1.2 97
2019-12-11 05:00:00 3 4 Sudeste 8 Sudeste 0 955.4 -1.3 97
2019-12-11 04:00:00 2.8 3 Sudeste 5 Sudoeste 0 955.8 -1.5 97
2019-12-11 03:00:00 2.2 3 Sudeste 5 Norte 0 956.1 -1.4 97
2019-12-11 02:00:00 1.6 6 Norte 11 Noroeste 0 956.7 -0.7 97
2019-12-11 01:00:00 1.1 8 Norte 11 Norte 0 957.3 -0.4 96
2019-12-11 00:00:00 0.9 6 Norte 9 Norte 0 957.5 -0.4 96
2019-12-10 23:00:00 1.7 7 Norte 9 Norte 0 957.4 -0.4 95
2019-12-10 22:00:00 2.8 3 Norte 8 Norte 0 957.7 -0.1 95
2019-12-10 21:00:00 3.7 6 Norte -- -- 0 957.9 -0.5 95
2019-12-10 20:00:00 4 0 Calma 5 Norte 0 957.8 -0.7 94
2019-12-10 19:00:00 5 4 Norte 8 Nordeste 0 957.8 -1 93
2019-12-10 18:00:00 5.4 -- -- -- -- 0 958.4 -0.6 92
2019-12-10 17:00:00 6.1 5 Norte 11 Norte 0 958.5 -1.5 90
2019-12-10 16:00:00 7.1 8 Norte 13 Norte 0 958.8 -1.9 85
2019-12-10 15:00:00 6.2 5 Norte 11 Norte 0 959 -2.5 89
2019-12-10 14:00:00 4.5 3 Sudoeste 18 Oeste 0 960 -1.7 97
2019-12-10 13:00:00 3.4 2 Noroeste 9 Nordeste 0 960.7 -0.9 97
2019-12-10 12:00:00 2 6 Nordeste 9 Norte 0 961.5 -0.1 97
2019-12-10 11:00:00 2 10 Norte 15 Noroeste 0 961.7 0.1 97
2019-12-10 10:00:00 2.5 3 Este 9 Este 0 961.6 0 97
2019-12-10 09:00:00 2.3 8 Este 11 Este 0 961.6 0.1 97
2019-12-10 08:00:00 3.4 10 Norte 13 Norte 0 961.6 0.2 97
2019-12-10 07:00:00 3.8 9 Norte 11 Norte 0 961.6 -0.4 97
2019-12-10 06:00:00 4.1 3 Norte 9 Este 0 961.5 -0.5 97
2019-12-10 05:00:00 3.7 3 Este 8 Este 0 961.4 -0.7 97
2019-12-10 04:00:00 3.8 5 Norte 9 Norte 0 962 -0.3 97
2019-12-10 03:00:00 4.7 6 Noroeste 9 Noroeste 0 962 -0.5 97
2019-12-10 02:00:00 5.2 5 Noroeste 9 Sur 0 962.1 -0.2 96
2019-12-10 01:00:00 4.9 2 Sudeste 8 Este 0 962.3 0.2 96
2019-12-10 00:00:00 4 3 Este 11 Sudeste 0 962.5 0.5 94
2019-12-09 23:00:00 4.2 6 Sudeste 11 Sur 0 962.3 0.7 94
2019-12-09 22:00:00 4.9 2 Nordeste 8 Nordeste 0 962.1 1 91
2019-12-09 21:00:00 6 0 Calma 13 Nordeste 0 962 1.6 89
2019-12-09 20:00:00 6.5 3 Este 11 Este 0 961.6 1.7 88
2019-12-09 19:00:00 7.2 4 Este 15 Este 0 961.1 1.5 87
2019-12-09 18:00:00 8.6 5 Nordeste 9 Nordeste 0 960.4 0.8 86
2019-12-09 17:00:00 9.9 2 Nordeste 13 Este 0 959.9 0 85
2019-12-09 16:00:00 10.7 9 Este 17 Sudeste 0 959.6 -1.1 81
2019-12-09 15:00:00 11.6 6 Sudeste 22 Sudoeste 0 959.6 -1.5 71
2019-12-09 14:00:00 11.1 9 Sur 22 Sudoeste 0 959.9 -1.5 70
2019-12-09 13:00:00 9.5 10 Sur 21 Sudoeste 0 960.7 -0.7 77
2019-12-09 12:00:00 8.5 13 Sur 24 Sur 0 961.1 0.3 87
2019-12-09 11:00:00 6.3 10 Sur 17 Sur 0 961.4 1.1 97
2019-12-09 10:00:00 5.5 7 Este 11 Sudeste 0 961.4 1.7 97
2019-12-09 09:00:00 5.5 7 Sudeste 11 Sur 0 960.8 1.5 97
2019-12-09 08:00:00 5.7 4 Este 9 Este 0 960.3 0.9 97
2019-12-09 07:00:00 5.8 3 Este 15 Sur 0 959.7 0.4 97
2019-12-09 06:00:00 6 9 Sudeste 11 Sur 0 959.3 0 97
2019-12-09 05:00:00 6.1 0 Calma 9 Sur 0 959.4 0.5 97
2019-12-09 04:00:00 6 0 Calma 8 Este 0 959.3 0.7 97
2019-12-09 03:00:00 6.3 4 Este 9 Nordeste 0 959.3 0.8 97
2019-12-09 02:00:00 6.6 3 Norte 8 Norte 0 958.9 0.2 97
2019-12-09 01:00:00 6.6 0 Calma 8 Sudeste 0 958.6 0.5 96
2019-12-09 00:00:00 6.5 6 Sudeste 8 Sudeste 0 958.5 0.5 96
2019-12-08 23:00:00 6.4 0 Calma 4 Nordeste 0 958.7 1.1 96
2019-12-08 22:00:00 6.3 0 Calma 8 Norte 0 958.1 0.9 96
2019-12-08 21:00:00 6.3 4 Norte 9 Norte 0 958 0.8 96
2019-12-08 20:00:00 6.3 0 Calma 8 Norte 0 957.6 0.5 95
2019-12-08 19:00:00 6.2 3 Este 5 Este 0 957.2 0 95
2019-12-08 18:00:00 6.3 2 Noroeste 5 Sudoeste 0.7 957.2 0.1 94
2019-12-08 17:00:00 6.3 0 Calma 9 Sur 0.4 957.1 -0.1 93
2019-12-08 16:00:00 6.3 3 Nordeste 8 Sudeste 1 957.2 -0.3 93
2019-12-08 15:00:00 6 3 Nordeste 8 Este 0 957.1 -1.1 92
2019-12-08 14:00:00 5.9 5 Sudeste 13 Sur 0 957.2 -0.9 93
2019-12-08 13:00:00 5.7 4 Sudeste 11 Sur 0 957.5 -0.6 95
2019-12-08 12:00:00 5.6 7 Sur 13 Sur 0 958.2 0.4 97
2019-12-08 11:00:00 5 5 Sudeste 13 Sur 0 958.1 0.6 97
2019-12-08 10:00:00 4.2 5 Norte 11 Noroeste 0 958.1 1 97
2019-12-08 09:00:00 4.4 0 Calma 8 Este 0 957.8 1 97
2019-12-08 08:00:00 4.3 3 Norte 5 Norte 0 957.5 0.5 96
2019-12-08 07:00:00 3.9 3 Este 5 Este 0 957.1 0.1 95
2019-12-08 06:00:00 3.6 0 Calma 4 Este 0 956.8 -0.3 95
2019-12-08 05:00:00 3.5 3 Norte 5 Norte 0 957 -0.5 96
2019-12-08 04:00:00 2.7 4 Norte 8 Norte 0 957 -0.4 95
2019-12-08 03:00:00 2.3 4 Nordeste -- -- 0 957.1 -0.5 94
2019-12-08 02:00:00 3.5 9 Noroeste 13 Noroeste 0 957.5 0 95
2019-12-08 01:00:00 3.6 4 Norte 11 Noroeste 0 957.4 0.3 94
2019-12-08 00:00:00 4.1 3 Norte -- -- 0 957.6 0.9 94
2019-12-07 23:00:00 5.3 0 Calma 8 Sudeste 0 957.5 1.2 93
2019-12-07 22:00:00 5.6 3 Nordeste 5 Nordeste 0 957.1 1.3 91
2019-12-07 21:00:00 6.8 3 Sudeste 8 Sur 0 956.7 1.4 87
2019-12-07 20:00:00 8.3 5 Sur 11 Sudoeste 0 956.3 1.2 81
2019-12-07 19:00:00 9.9 7 Sudoeste 13 Sudoeste 0 955.8 0.9 75
2019-12-07 18:00:00 11 8 Sur 11 Sur 0 955.3 0.3 71
2019-12-07 17:00:00 13.1 7 Sur 9 Sur 0 955.1 -0.4 64
2019-12-07 16:00:00 13.8 5 Sudeste 9 Sudeste 0 954.9 -1.3 58
2019-12-07 15:00:00 13.4 4 Sur 8 Norte 0 955 -2 60
2019-12-07 14:00:00 11.5 4 Noroeste 15 Sudoeste 0 955.5 -1.7 68
2019-12-07 13:00:00 10.2 4 Sudoeste 13 Oeste 0 956.2 -0.8 73
2019-12-07 12:00:00 8 4 Sudoeste 9 Sur 0 957 0.5 79
2019-12-07 11:00:00 6.5 4 Sur 9 Sudoeste 0 957.2 1.1 81
2019-12-07 10:00:00 3.5 0 Calma 5 Norte 0 957 1.2 95
2019-12-07 09:00:00 0.7 3 Norte 8 Norte 0 956.5 0.8 95
2019-12-07 08:00:00 1.1 6 Norte 9 Norte 0 956.1 0.3 94
2019-12-07 07:00:00 1.5 6 Noroeste 11 Norte 0 955.8 -0.2 94
2019-12-07 06:00:00 1.6 3 Norte 8 Noroeste 0 955.7 -0.1 94
2019-12-07 05:00:00 2 3 Noroeste -- -- 0 955.8 0 92
2019-12-07 04:00:00 3.3 6 Norte 13 Norte 0 956 -0.1 91
2019-12-07 03:00:00 3.5 10 Noroeste 15 Norte 0 955.8 -0.5 91
2019-12-07 02:00:00 4.1 6 Norte 9 Norte 0 955.8 -0.2 90
2019-12-07 01:00:00 5.1 6 Norte 8 Norte 0 956.1 0.6 89
2019-12-07 00:00:00 5.9 6 Norte 15 Norte 0 956.3 1.2 89
2019-12-06 23:00:00 4.7 7 Norte 13 Norte 0 956 1.2 91
2019-12-06 22:00:00 6 5 Norte 9 Nordeste 0 955.5 1.2 90
2019-12-06 21:00:00 7.1 0 Calma 9 Sur 0 955.1 1.3 86
2019-12-06 20:00:00 8.1 4 Sur 9 Sur 0 954.8 1 79
2019-12-06 19:00:00 9.2 5 Sudeste 11 Sudoeste 0 954.3 0.6 74
2019-12-06 18:00:00 10.8 4 Sudoeste 9 Sur 0 953.8 0 68
2019-12-06 17:00:00 13.1 0 Calma -- -- 0 953.8 -0.4 64
2019-12-06 16:00:00 13 3 Noroeste 11 Oeste 0 953.7 -1.2 63
2019-12-06 15:00:00 14.2 4 Sudoeste 13 Sudoeste 0 953.8 -1.8 57
2019-12-06 14:00:00 13.4 5 Sudoeste 17 Sur 0 954.2 -1.9 59
2019-12-06 13:00:00 12.1 4 Noroeste 11 Norte 0 954.9 -0.8 67
2019-12-06 12:00:00 10.3 5 Norte 15 Norte 0 955.6 0.6 73
2019-12-06 11:00:00 8.7 11 Norte 17 Norte 0 956.1 1.2 78
2019-12-06 10:00:00 8 11 Norte 15 Norte 0 955.7 1.3 80
2019-12-06 09:00:00 7 2 Nordeste 5 Nordeste 0 955 1.1 84
2019-12-06 08:00:00 6.7 0 Calma 9 Noroeste 0 954.9 1.3 86
2019-12-06 07:00:00 6.3 8 Noroeste 13 Norte 0 954.4 0.7 87
2019-12-06 06:00:00 6.7 8 Norte 15 Norte 0 953.9 0.2 85
2019-12-06 05:00:00 7.1 9 Norte 13 Norte 0 953.6 -0.2 82
2019-12-06 04:00:00 8.7 10 Norte 17 Noroeste 0 953.7 -0.3 78
2019-12-06 03:00:00 8.4 8 Norte 13 Norte 0 953.7 -0.5 80
2019-12-06 02:00:00 8.4 10 Norte 15 Norte 0 953.8 0 79
2019-12-06 01:00:00 7.8 9 Noroeste 13 Norte 0 954 0.6 82
2019-12-06 00:00:00 7.9 12 Noroeste 17 Norte 0 954.2 1 79
2019-12-05 23:00:00 8.3 12 Norte 17 Norte 0 953.8 1.4 78
2019-12-05 22:00:00 8.2 11 Norte 18 Norte 0 953.4 1.7 77
2019-12-05 21:00:00 8.3 12 Norte 18 Norte 0 953.2 2.1 76
2019-12-05 20:00:00 8.8 6 Norte 15 Norte 0 952.4 1.6 74
2019-12-05 19:00:00 9.7 6 Norte 17 Noroeste 0 951.7 1.3 71
2019-12-05 18:00:00 11.1 11 Norte 22 Nordeste 0 951.1 1 65
2019-12-05 17:00:00 12.5 16 Norte 30 Norte 0 950.8 0.7 60
2019-12-05 16:00:00 12.1 19 Norte 30 Norte 0 950.4 -0.1 63
2019-12-05 15:00:00 12.7 18 Norte 32 Norte 0 950.1 -0.7 60
2019-12-05 14:00:00 12.5 17 Nordeste 30 Nordeste 0 950.1 -0.6 60
2019-12-05 13:00:00 11.6 19 Nordeste 33 Norte 0 950.5 0.7 63
2019-12-05 12:00:00 11.5 13 Nordeste 30 Norte 0 950.8 1.9 65
2019-12-05 11:00:00 9.7 11 Norte 26 Norte 0 950.7 2.5 69
2019-12-05 10:00:00 9.2 14 Norte 35 Nordeste 0 949.8 2.4 70
2019-12-05 09:00:00 8.7 18 Norte 32 Norte 0 948.9 2.2 70
2019-12-05 08:00:00 8.3 10 Norte 21 Norte 0 948.2 1.9 72
2019-12-05 07:00:00 8.3 10 Norte 22 Norte 0 947.4 1.3 72
2019-12-05 06:00:00 8.6 11 Norte 22 Norte 0 946.7 0.9 69
2019-12-05 05:00:00 8.5 6 Norte 17 Norte 0 946.3 1.2 69
2019-12-05 04:00:00 8.9 11 Norte 26 Norte 0 946.1 1.7 67
2019-12-05 03:00:00 8.8 4 Nordeste 17 Nordeste 0 945.8 1.8 73
2019-12-05 02:00:00 8.9 12 Norte 30 Norte 0 945.1 1.5 74
2019-12-05 01:00:00 9.1 15 Norte 26 Norte 0 944.4 1.1 73
2019-12-05 00:00:00 7.9 4 Norte 9 Norte 0 944 0.9 78
2019-12-04 23:00:00 7.6 4 Norte 9 Nordeste 0 943.6 0.9 79
2019-12-04 22:00:00 8.1 4 Noroeste 13 Noroeste 0 943.3 1.1 77
2019-12-04 21:00:00 8.7 0 Calma 17 Nordeste 0 943.1 1.3 74
2019-12-04 20:00:00 9.5 10 Nordeste 17 Nordeste 0 942.7 0.9 71
2019-12-04 19:00:00 10.1 9 Norte 17 Norte 0 942.2 1.4 75
2019-12-04 18:00:00 10.1 9 Norte 28 Nordeste 0.1 941.8 1.4 77
2019-12-04 17:00:00 10.7 11 Nordeste 33 Nordeste 0.1 941.8 1.3 77
2019-12-04 16:00:00 11.6 17 Nordeste 35 Nordeste 0 940.8 -0.9 67
2019-12-04 15:00:00 11.8 18 Norte 33 Nordeste 0 940.4 -2 69
2019-12-04 14:00:00 10.3 15 Norte 28 Norte 0 940.5 -2.3 76
2019-12-04 13:00:00 9.7 14 Norte 24 Norte 0 941.7 -1.3 80
2019-12-04 12:00:00 9.3 12 Norte 22 Norte 0 942.4 -0.7 81
2019-12-04 11:00:00 8.2 8 Norte 17 Norte 0 942.8 -0.3 87
2019-12-04 10:00:00 7 14 Norte 21 Norte 0 943 0 88
2019-12-04 09:00:00 6.7 11 Noroeste 17 Norte 0.4 943.1 -0.1 90
2019-12-04 08:00:00 6.5 11 Noroeste 17 Noroeste 0.4 943.1 -0.6 89
2019-12-04 07:00:00 6.3 14 Norte 22 Norte 1.5 943 -1.7 90
2019-12-04 06:00:00 6.4 12 Norte 18 Norte 0 943.2 -2 88
2019-12-04 05:00:00 5.7 10 Norte 15 Norte 0 943.7 -2.1 90
2019-12-04 04:00:00 5.6 9 Norte 15 Norte 0 944.7 -1.8 88
2019-12-04 03:00:00 5.4 7 Norte 15 Norte 0 945.2 -1.6 88
2019-12-04 02:00:00 5.4 11 Norte 18 Norte 0.8 945.8 -1.1 86
2019-12-04 01:00:00 6.2 7 Nordeste 21 Norte 0.2 946.5 -0.2 77
2019-12-04 00:00:00 6.3 12 Norte 21 Norte 0 946.8 0.1 73
2019-12-03 23:00:00 5.6 9 Norte 13 Norte 0 946.9 0.3 79
2019-12-03 22:00:00 6.4 8 Norte 18 Norte 0 946.7 0.3 75
2019-12-03 21:00:00 6.7 10 Norte 18 Noroeste 0 946.7 0.6 75
2019-12-03 20:00:00 7.3 10 Norte 17 Norte 0 946.6 0.8 73
2019-12-03 19:00:00 7.6 6 Norte 13 Norte 0 946.4 0.5 72
2019-12-03 18:00:00 8.4 3 Nordeste 11 Nordeste 0 946.1 0.1 71
2019-12-03 17:00:00 8.8 8 Nordeste 13 Norte 0 945.8 -0.9 67
2019-12-03 16:00:00 10.6 10 Nordeste 15 Este 0 945.9 -1.7 57
2019-12-03 15:00:00 10.4 9 Nordeste 18 Norte 0 946 -2.6 59
2019-12-03 14:00:00 9.7 10 Norte 18 Nordeste 0 946.7 -2.3 60
2019-12-03 13:00:00 8.9 9 Nordeste 22 Norte 0 947.6 -1.6 61
2019-12-03 12:00:00 8.1 12 Norte 28 Nordeste 0 948.6 -0.7 61
2019-12-03 11:00:00 6.6 14 Norte 26 Norte 0 949 -0.2 65
2019-12-03 10:00:00 4.5 14 Norte 21 Norte 0 949.2 0.1 73
2019-12-03 09:00:00 2.6 13 Norte 18 Norte 0 949.3 0.2 77
2019-12-03 08:00:00 3.2 14 Norte 18 Norte 0 949.2 0 72
2019-12-03 07:00:00 4.1 13 Norte 22 Norte 0 949.1 -0.6 71
2019-12-03 06:00:00 4.5 12 Norte 24 Nordeste 0 949.1 -0.5 72
2019-12-03 05:00:00 4.6 11 Nordeste 26 Nordeste 0 949.2 -0.7 70
2019-12-03 04:00:00 4.2 11 Norte 22 Norte 0 949.7 -0.5 72
2019-12-03 03:00:00 3.8 9 Norte 18 Norte 0 949.6 -0.8 75
2019-12-03 02:00:00 4.5 9 Norte 24 Norte 0 949.9 -0.4 74
2019-12-03 01:00:00 5.1 14 Norte 24 Norte 0 950.2 -0.1 73
2019-12-03 00:00:00 5.4 15 Norte 24 Norte 0 950.4 0.1 75
2019-12-02 23:00:00 6.1 13 Norte 24 Norte 0 950.3 0.5 73
2019-12-02 22:00:00 6.6 14 Norte 24 Norte 0 950.3 1.1 69
2019-12-02 21:00:00 7.1 14 Norte 24 Norte 0 950.3 1.7 68
2019-12-02 20:00:00 8 14 Norte 33 Norte 0 949.8 1.7 64
2019-12-02 19:00:00 8.7 16 Norte 33 Este 0 949.2 1.6 64
2019-12-02 18:00:00 9.7 17 Nordeste 32 Nordeste 0 948.6 1 61
2019-12-02 17:00:00 10.8 15 Nordeste 35 Nordeste 0 948.1 0.5 58
2019-12-02 16:00:00 11.1 16 Nordeste 42 Nordeste 0 947.6 -0.5 57
2019-12-02 15:00:00 11.3 21 Nordeste 41 Nordeste 0 947.6 -1 54
2019-12-02 14:00:00 11.5 23 Nordeste 42 Nordeste 0 947.6 -1.1 54
2019-12-02 13:00:00 10.9 21 Nordeste 42 Nordeste 0 948.1 0 60
2019-12-02 12:00:00 9.6 19 Nordeste 37 Norte 0 948.6 1.1 67
2019-12-02 11:00:00 7.3 15 Nordeste 32 Nordeste 0 948.7 1.6 74
2019-12-02 10:00:00 6.2 14 Nordeste 37 Nordeste 0 948.1 1.7 77
2019-12-02 09:00:00 6.1 17 Norte 32 Nordeste 0 947.5 1.5 77
2019-12-02 08:00:00 6 15 Norte 30 Norte 0 947.1 1.2 77
2019-12-02 07:00:00 6.7 15 Norte 39 Nordeste 0 946.4 0.9 74
2019-12-02 06:00:00 7.1 17 Nordeste 30 Nordeste 0 946 0.8 75
2019-12-02 05:00:00 7.5 10 Norte 33 Nordeste 0 945.9 1.1 77
2019-12-02 04:00:00 7.7 13 Nordeste 32 Nordeste 0 945.5 1 78
2019-12-02 03:00:00 7.8 14 Nordeste 32 Nordeste 0 945.2 0.9 79
2019-12-02 02:00:00 7.9 13 Nordeste 28 Norte 0 944.8 0.5 82
2019-12-02 01:00:00 8 16 Nordeste 28 Nordeste 0 944.5 0.4 86
2019-12-02 00:00:00 8.1 13 Nordeste 24 Nordeste 0 944.3 0.5 88
2019-12-01 23:00:00 8.1 13 Nordeste 21 Nordeste 0.6 944.3 0.7 93
2019-12-01 22:00:00 8.2 8 Nordeste 17 Norte 0.3 944.1 0.9 94
2019-12-01 21:00:00 8.3 8 Norte 18 Nordeste 2.5 943.8 0.9 95
2019-12-01 20:00:00 8.4 10 Norte 18 Nordeste 4.1 943.6 0.9 96
2019-12-01 19:00:00 8.4 7 Nordeste 11 Nordeste 3.2 943.2 0.4 95
2019-12-01 18:00:00 8.7 6 Este 13 Este 1.4 942.9 -0.2 94
2019-12-01 17:00:00 9.1 6 Este 15 Sudeste 0.2 942.7 -0.9 92
2019-12-01 16:00:00 9.4 11 Sudeste 18 Este 0 942.8 -1.5 92
2019-12-01 15:00:00 8.7 5 Este 15 Sudeste 0.4 943.1 -1.8 94
2019-12-01 14:00:00 8.7 9 Sudeste 13 Sudeste 0.6 943.6 -1.7 96
2019-12-01 13:00:00 8.2 5 Norte 9 Norte 0.1 944.3 -0.9 96
2019-12-01 12:00:00 7.7 4 Norte 11 Oeste 0.5 944.9 0.1 96
2019-12-01 11:00:00 7.4 4 Este 11 Sur 0.5 945.3 0.5 96
2019-12-01 10:00:00 6.8 3 Sur 11 Sur 0 945.2 0.6 95
2019-12-01 09:00:00 6.1 5 Nordeste 13 Norte 0 944.8 -0.3 95
2019-12-01 08:00:00 6.3 9 Norte 13 Norte 0 944.8 -0.1 95
2019-12-01 07:00:00 6.1 2 Nordeste 13 Norte 0 944.6 -1.1 94
2019-12-01 06:00:00 6.5 9 Norte 15 Norte 0 945.1 -0.9 95
2019-12-01 05:00:00 6.9 8 Norte 13 Norte 0 944.9 -1.6 95
2019-12-01 04:00:00 7.8 7 Sur 13 Sur 0 945.7 -1.3 94
2019-12-01 03:00:00 8 13 Sur 18 Sur 0 946 -1.3 93
2019-12-01 02:00:00 7.9 13 Sur 15 Sur 0 946.5 -1 94
2019-12-01 01:00:00 7.4 7 Sudeste 15 Sur 0 947 -1.4 94
2019-12-01 00:00:00 7.5 15 Sudeste 17 Sudeste 1 947.3 -0.4 94
2019-11-30 23:00:00 8.3 12 Este 18 Este 2.9 947.5 0.7 93
2019-11-30 22:00:00 9 5 Norte 17 Norte 1.7 948.4 1.4 92
2019-11-30 21:00:00 10.2 13 Norte 41 Sudoeste 1.9 947.7 0.5 88
2019-11-30 20:00:00 13.1 20 Sudoeste 32 Sudoeste 0 946.8 -1.1 82
2019-11-30 19:00:00 13.5 22 Sudoeste 39 Sudoeste 0 947 -1.1 76
2019-11-30 18:00:00 13.5 26 Sudoeste 61 Sudoeste 0 947.2 -1.5 74
2019-11-30 17:00:00 14.3 24 Sudoeste 45 Sudoeste 0 947.9 -2.2 73
2019-11-30 16:00:00 15.5 25 Sudoeste 50 Sudoeste 0 948.1 -2.8 69
2019-11-30 15:00:00 14.9 23 Sudoeste 37 Sudoeste 0 948.7 -3.1 70
2019-11-30 14:00:00 14.1 22 Sudoeste 39 Sudoeste 0 950.1 -2 76
2019-11-30 13:00:00 14.2 21 Sur 42 Sudoeste 0 950.9 -1.4 76
2019-11-30 12:00:00 14 18 Sudoeste 35 Sur 0 951.8 -0.2 79
2019-11-30 11:00:00 13.6 18 Sudoeste 42 Sudoeste 0 952.1 0.1 85
2019-11-30 10:00:00 13.1 17 Sur 28 Sudoeste 0 952.3 0.4 88
2019-11-30 09:00:00 12.8 17 Sudoeste 26 Sudoeste 0 952 -0.3 90
2019-11-30 08:00:00 12.5 13 Sudoeste 21 Sudoeste 0 952 -0.6 94
2019-11-30 07:00:00 12.6 12 Sur 17 Sur 0 951.9 -1 93
2019-11-30 06:00:00 12.8 11 Sur 24 Sudoeste 0 952.3 -0.4 91
2019-11-30 05:00:00 12.8 9 Sur 17 Sur 0 952.6 -0.7 92
2019-11-30 04:00:00 12.7 10 Sur 15 Sur 0 952.9 -0.7 93
2019-11-30 03:00:00 12.7 11 Sur 13 Sur 0 952.7 -1.2 93
2019-11-30 02:00:00 12.8 9 Sur 13 Sur 0 953.3 -0.3 94
2019-11-30 01:00:00 13 8 Sur 17 Sudoeste 0 953.6 0.1 93
2019-11-30 00:00:00 13.3 15 Sudoeste 21 Sudoeste 0 953.9 0.7 91
2019-11-29 23:00:00 13.3 14 Oeste 22 Sudoeste 0 953.6 0.5 89
2019-11-29 22:00:00 13.4 11 Sur 26 Sudoeste 0 953.5 0.5 89
2019-11-29 21:00:00 13.7 9 Sur 26 Sudoeste 0 953.2 0.3 88
2019-11-29 20:00:00 13.8 15 Sur 32 Sudoeste 0 953.1 0.7 87
2019-11-29 19:00:00 14.1 11 Sudoeste 28 Sudoeste 0 953 1 85
2019-11-29 18:00:00 14.4 9 Sur 28 Sur 0 952.9 0.9 86
2019-11-29 17:00:00 14.5 12 Sur 33 Sur 0 952.4 0.2 85
2019-11-29 16:00:00 14.6 9 Sudoeste 32 Sudoeste 0.3 952 -0.7 86
2019-11-29 15:00:00 14.8 13 Sudoeste 21 Sudoeste 0.2 952 -1 86
2019-11-29 14:00:00 15.1 7 Sudoeste 33 Sudoeste 0 952.2 -0.7 82
2019-11-29 13:00:00 14.8 15 Sudoeste 35 Oeste 0 952.7 0.6 81
2019-11-29 12:00:00 14.5 7 Sudoeste 30 Sudoeste 0 953 1.6 82
2019-11-29 11:00:00 13.7 10 Oeste 41 Sudoeste 0 952.9 1.9 84
2019-11-29 10:00:00 13.2 24 Sudoeste 39 Sudoeste 0 952.1 1.7 86
2019-11-29 09:00:00 12.6 24 Sudoeste 37 Sudoeste 0 951.4 1.4 88
2019-11-29 08:00:00 12.5 16 Sudoeste 37 Sudoeste 0 951 1.2 88
2019-11-29 07:00:00 12.3 13 Sudoeste 35 Sudoeste 0 950.4 0.8 89
2019-11-29 06:00:00 12.3 26 Sudoeste 37 Sudoeste 0 950 0.4 89
2019-11-29 05:00:00 12.5 25 Sudoeste 39 Sudoeste 0 949.8 0.3 87
2019-11-29 04:00:00 12.4 27 Sudoeste 39 Sudoeste 0 949.6 0 87
2019-11-29 03:00:00 12.1 27 Sudoeste 35 Sudoeste 0 949.6 0.1 87
2019-11-29 02:00:00 11.9 22 Sudoeste 32 Sudoeste 0 949.5 -0.2 86
2019-11-29 01:00:00 11.8 21 Sudoeste 32 Sudoeste 0 949.6 0.2 86
2019-11-29 00:00:00 11.9 24 Sudoeste 32 Sudoeste 0 949.5 0.3 85
2019-11-28 23:00:00 11.9 23 Sudoeste 45 Sudoeste 0 949.7 0.5 85
2019-11-28 22:00:00 12.2 29 Sudoeste 42 Oeste 0 949.4 0.6 83
2019-11-28 21:00:00 11.9 31 Sudoeste 46 Sudoeste 0 949.2 0.5 83
2019-11-28 20:00:00 12.2 25 Sudoeste 39 Oeste 0 949.2 0.8 81
2019-11-28 19:00:00 12.4 18 Sudoeste 41 Sudoeste 0 948.8 0.2 82
2019-11-28 18:00:00 12.3 19 Sudoeste 50 Sudoeste 0 948.7 0.1 80
2019-11-28 17:00:00 12.5 22 Sudoeste 52 Sudoeste 0 948.4 -0.9 78
2019-11-28 16:00:00 12.3 22 Sudoeste 50 Sudoeste 0 948.6 -1.1 78
2019-11-28 15:00:00 12.3 19 Sur 37 Sudoeste 0 948.6 -1.5 80
2019-11-28 14:00:00 11.9 25 Sudoeste 33 Sudoeste 0 949.3 -0.5 81
2019-11-28 13:00:00 12.2 23 Sudoeste 55 Sur 0 949.7 0.1 81
2019-11-28 12:00:00 12 21 Sudoeste 39 Sudoeste 0 950.1 1 79
2019-11-28 11:00:00 11.4 23 Sudoeste 55 Sudoeste 0 949.8 1.1 81
2019-11-28 10:00:00 10.7 15 Sudoeste 32 Sudoeste 0 949.6 1.6 86
2019-11-28 09:00:00 9.7 11 Sudoeste 28 Sudoeste 0 949.1 1.5 87
2019-11-28 08:00:00 8.9 6 Sudoeste 28 Sudoeste 0 948.7 1.2 88
2019-11-28 07:00:00 9 19 Sudoeste 32 Sudoeste 0 948 0.7 88
2019-11-28 06:00:00 9.2 23 Sudoeste 35 Sudoeste 0 947.6 0.6 87
2019-11-28 05:00:00 9.3 25 Sudoeste 37 Oeste 0 947.5 0.4 86
2019-11-28 04:00:00 9 17 Sudoeste 26 Sudoeste 0 947.3 -0.4 87
2019-11-28 03:00:00 9.6 22 Sudoeste 32 Sudoeste 0 947 -0.3 85
2019-11-28 02:00:00 9.7 18 Sudoeste 35 Oeste 0 947.1 0 85
2019-11-28 01:00:00 10.1 22 Sudoeste 33 Sudoeste 0 947.7 1.2 83
2019-11-28 00:00:00 10.5 24 Sudoeste 35 Sudoeste 0 947.3 0.9 81
2019-11-27 23:00:00 10.9 20 Sudoeste 33 Sudoeste 0 947.1 1.2 79
2019-11-27 22:00:00 11 22 Sudoeste 46 Oeste 0 946.5 0.9 79
2019-11-27 21:00:00 11.5 30 Sudoeste 45 Oeste 0 946.4 1.3 77
2019-11-27 20:00:00 12 24 Sudoeste 42 Sudoeste 0 945.9 1.1 75
2019-11-27 19:00:00 12.2 24 Sudoeste 41 Sudoeste 0 945.6 1.1 72
2019-11-27 18:00:00 12.5 24 Sudoeste 41 Sudoeste 0 945.1 0.4 70
2019-11-27 17:00:00 12.8 26 Sudoeste 45 Sudoeste 0 944.8 -0.1 66
2019-11-27 16:00:00 13.7 27 Sudoeste 42 Sudoeste 0 944.5 -0.9 62
2019-11-27 15:00:00 13.6 21 Sudoeste 50 Sudoeste 0 944.7 -1.1 64
2019-11-27 14:00:00 13.9 18 Sur 48 Sudoeste 0 944.9 -0.8 65
2019-11-27 06:00:00 11.6 17 Oeste 32 Sudoeste 0 943.2 1.2 87
2019-11-27 05:00:00 12 19 Sudoeste 32 Sudoeste 0 942.8 1 88
2019-11-27 04:00:00 12.4 17 Sudoeste 33 Sudoeste 0 942.2 -0.3 89
2019-11-27 03:00:00 12.3 18 Sudoeste 42 Sudoeste 0 942 0 90
2019-11-27 02:00:00 12.6 26 Sudoeste 39 Sudoeste 0 941.8 -0.3 87
2019-11-27 01:00:00 12.9 28 Sudoeste 42 Sudoeste 0 942.5 0.1 85
2019-11-27 00:00:00 12.5 29 Sudoeste 48 Sudoeste 0 942 -0.3 85
2019-11-26 23:00:00 13.1 30 Sudoeste 52 Sudoeste 0 942.1 -0.1 86
2019-11-26 22:00:00 13.4 30 Sudoeste 48 Sudoeste 0.8 942.4 0.1 90
2019-11-26 21:00:00 13 23 Sur 35 Sudoeste 0.4 942.3 -0.8 94
2019-11-26 20:00:00 13.1 21 Sur 32 Sudoeste 0.2 942.2 -1.1 94
2019-11-26 19:00:00 13.3 15 Sur 33 Sudoeste 0 942.3 -1.3 91
2019-11-26 18:00:00 13.7 19 Sudoeste 39 Sudoeste 0 943.1 -1.3 86
2019-11-26 17:00:00 13.8 11 Sur 42 Sur 0 943.3 -2 88
2019-11-26 16:00:00 13.4 13 Sur 28 Sudoeste 0 943.6 -2.9 88
2019-11-26 15:00:00 12.5 15 Sur 26 Sur 0 944.4 -2.8 92
2019-11-26 14:00:00 12 14 Sur 22 Sur 0 945.3 -2.3 95
2019-11-26 13:00:00 11.6 15 Sur 26 Sudoeste 0 946.5 -1 94
2019-11-26 12:00:00 11.4 14 Sur 24 Sur 0 947.2 -0.3 94
2019-11-26 11:00:00 10.1 3 Norte 9 Noroeste 0 947.6 0.3 93
2019-11-26 10:00:00 9.8 4 Norte 8 Norte 0 947.5 0.4 93
2019-11-26 09:00:00 9.1 5 Norte 8 Norte 0 947.5 0.3 94
2019-11-26 08:00:00 8.8 8 Noroeste 15 Noroeste 0 947.3 -0.6 94
2019-11-26 07:00:00 9 10 Noroeste 15 Noroeste 0 947.1 -0.8 94
2019-11-26 06:00:00 8.9 6 Norte 11 Norte 0 947.2 -0.8 93
2019-11-26 05:00:00 9.4 4 Norte 9 Norte 0 947.9 -0.1 91
2019-11-26 04:00:00 10.5 4 Norte 11 Sudoeste 0 947.9 -0.5 94
2019-11-26 03:00:00 10.3 0 Calma 11 Este 0 948 -0.3 94
2019-11-26 02:00:00 10 7 Sudeste 17 Oeste 0 948 -0.1 92
2019-11-26 01:00:00 11.5 12 Oeste 24 Sudoeste 0 948.4 0.1 87
2019-11-26 00:00:00 11.2 14 Sudoeste 22 Sur 0 948.3 0.3 90
2019-11-25 23:00:00 11.6 12 Sur 24 Sur 0 948.1 0.4 87
2019-11-25 22:00:00 12.1 12 Sudoeste 33 Sudoeste 0 948.3 0.9 86
2019-11-25 21:00:00 12.6 15 Sudoeste 30 Oeste 0 948 1.1 84
2019-11-25 20:00:00 13.4 21 Sudoeste 30 Sudoeste 0 947.7 0.8 77
2019-11-25 19:00:00 14.3 21 Oeste 35 Sudoeste 0 947.4 -- 73
2019-11-25 18:00:00 14.7 19 Sudoeste 32 Sudoeste 0 946.9 0.9 73
2019-11-25 17:00:00 15.4 18 Sudoeste -- -- -- 946.9 0.6 70
2019-11-25 16:00:00 -- -- -- -- -- -- -- -- --
2019-11-25 15:00:00 16.6 20 Sudoeste 42 Sur 0 946 -1.2 67
2019-11-25 14:00:00 15.9 21 Sudoeste 42 Sudoeste 0 946.3 -0.8 69
2019-11-25 13:00:00 15.2 21 Sudoeste 46 Sudoeste 0 946.8 -0.4 68
2019-11-25 12:00:00 13.8 22 Sudoeste 46 Sudoeste 0 947.2 0 79
2019-11-25 11:00:00 12 22 Sur 37 Sudoeste 0 947.1 0.7 89
2019-11-25 10:00:00 10.4 14 Sur 28 Sudoeste 0 947.2 0.9 94
2019-11-25 09:00:00 10 10 Sur 22 Sudoeste 0 947.2 1.2 93
2019-11-25 08:00:00 9.8 18 Sudoeste 33 Sudoeste 0 946.4 0.3 92
2019-11-25 07:00:00 10.1 13 Sudoeste 21 Sudoeste 0 946.3 0 92
2019-11-25 06:00:00 9.9 10 Sudoeste 18 Sudoeste 0 946 -0.4 93
2019-11-25 05:00:00 9.8 13 Sur 22 Sudoeste 0 946.1 -0.2 92
2019-11-25 04:00:00 9.9 12 Sudoeste 32 Sudoeste 0 946.3 -0.5 91
2019-11-25 03:00:00 9.9 19 Sudoeste 35 Sudoeste 0.1 946.4 -0.8 90
2019-11-25 02:00:00 9.9 22 Sudoeste 33 Sudoeste 0 946.3 -1 90
2019-11-25 01:00:00 9.9 24 Sudoeste 37 Sudoeste 0 946.8 -0.1 87
2019-11-25 00:00:00 9.9 13 Sudoeste 26 Sudoeste 0 947.2 0.1 84
2019-11-24 23:00:00 9.9 16 Sudoeste 41 Sudoeste 0 947.3 0.1 81
2019-11-24 22:00:00 10.1 19 Sudoeste 42 Sudoeste 0 946.9 -0.1 73
2019-11-24 21:00:00 9.9 24 Sudoeste 39 Sudoeste 0 947.1 0.6 66
2019-11-24 20:00:00 9.9 22 Sudoeste 35 Sudoeste 0 947.2 0.5 58
2019-11-24 19:00:00 10.1 15 Sudoeste 32 Sur 0 947 1 64
2019-11-24 18:00:00 10.1 14 Sudoeste 32 Sudoeste 0 946.5 0.4 60
2019-11-24 17:00:00 11.6 14 Sudoeste 35 Sudoeste 0 946.7 -0.3 53
2019-11-24 16:00:00 13.1 17 Sudoeste 30 Sudoeste 0 946 -1.4 47
2019-11-24 15:00:00 13.1 14 Sudoeste 30 Oeste 0 946.1 -2 44
2019-11-24 14:00:00 11.4 15 Oeste 32 Oeste 0 947 -1.1 49
2019-11-24 13:00:00 11.2 19 Oeste 30 Oeste 0 947.4 -0.3 49
2019-11-24 12:00:00 10.3 18 Oeste 30 Oeste 0 948.1 0.9 54
2019-11-24 11:00:00 9.5 8 Sur 18 Noroeste 0 948.1 1.6 59
2019-11-24 10:00:00 7.9 14 Noroeste 28 Oeste 0 947.7 2.1 64
2019-11-24 09:00:00 7.3 21 Oeste 32 Oeste 0 947.2 2.1 66
2019-11-24 08:00:00 7 19 Oeste 32 Oeste 0 946.5 1.8 67
2019-11-24 07:00:00 7 20 Oeste 37 Noroeste 0 945.6 1.1 68
2019-11-24 06:00:00 7.4 23 Noroeste 41 Noroeste 0 945.1 1.3 67
2019-11-24 05:00:00 8.1 33 Oeste 42 Oeste 0 944.7 0.9 65
2019-11-24 04:00:00 8.2 22 Oeste 41 Oeste 0 944.5 0.6 64
2019-11-24 03:00:00 8.4 30 Oeste 41 Oeste 0 943.8 0.3 63
2019-11-24 02:00:00 8.7 26 Oeste 35 Oeste 0 943.8 1.2 62
2019-11-24 01:00:00 9 26 Oeste 37 Oeste 0 943.9 1.4 60
2019-11-24 00:00:00 9.4 28 Oeste 48 Oeste 0 943.5 1.6 58
2019-11-23 23:00:00 9.9 33 Oeste 46 Oeste 0 942.6 1.2 55
2019-11-23 22:00:00 10 31 Oeste 48 Oeste 0 942.5 1.8 53
2019-11-23 21:00:00 9.6 24 Oeste 33 Oeste 0 941.9 2.2 55
2019-11-23 20:00:00 10.1 20 Oeste 37 Oeste 0 941.4 2.9 54
2019-11-23 19:00:00 10.4 17 Oeste 41 Oeste 0 940.7 2.9 53
2019-11-23 18:00:00 10.6 15 Oeste 35 Noroeste 0 939.7 2.4 53
2019-11-23 17:00:00 11.4 14 Oeste 42 Oeste 0 938.5 1.8 48
2019-11-23 16:00:00 12.3 30 Oeste 50 Oeste 0 937.8 1.4 45
2019-11-23 15:00:00 12.4 33 Oeste 50 Oeste 0 937.3 1.3 45
2019-11-23 14:00:00 12.2 30 Oeste 50 Oeste 0 936.7 1.6 47
2019-11-23 13:00:00 11.4 29 Oeste 58 Oeste 0 936.4 2.4 51
2019-11-23 12:00:00 11 36 Oeste 54 Oeste 0 936 3.8 52
2019-11-23 11:00:00 9.8 35 Oeste 52 Oeste 0 935.1 5 55
2019-11-23 10:00:00 8.3 29 Oeste 68 Oeste 0 934 5.2 59
2019-11-23 09:00:00 8.2 37 Oeste 61 Oeste 0 932.2 3.7 59
2019-11-23 08:00:00 7.8 30 Oeste 58 Oeste 0 930.1 2.3 64
2019-11-23 07:00:00 8.2 40 Oeste 55 Oeste 0 928.8 1.7 64
2019-11-23 06:00:00 8 22 Sudoeste 48 Oeste 0 928.5 1.8 72
2019-11-23 05:00:00 8.4 32 Oeste 50 Oeste 0 927.8 1.3 69
2019-11-23 04:00:00 8.4 24 Oeste 37 Oeste 0 927.1 0.3 66
2019-11-23 03:00:00 8.9 20 Oeste 41 Oeste 0 926.7 -0.2 72
2019-11-23 02:00:00 9.2 19 Sudoeste 37 Sudoeste 0 926.5 -0.4 86
2019-11-23 01:00:00 9.5 23 Sudoeste 37 Sudoeste 0 926.8 0 85
2019-11-23 00:00:00 9.7 24 Sudoeste 37 Sudoeste 0 926.9 0.7 84
2019-11-22 23:00:00 9.9 22 Sudoeste 52 Sudoeste 0 926.9 1.2 83
2019-11-22 22:00:00 10.6 21 Sudoeste 48 Sudoeste 0 926.8 1.5 84
2019-11-22 21:00:00 11.4 28 Sudoeste 42 Sudoeste 0 926.2 1.1 85
2019-11-22 20:00:00 11.8 29 Sudoeste 45 Sudoeste 0 925.7 0.7 86
2019-11-22 19:00:00 11.9 23 Sudoeste 39 Sudoeste 0.5 925.3 -0.2 90
2019-11-22 18:00:00 12 24 Sudoeste 42 Sudoeste 0 925.1 -1 88
2019-11-22 17:00:00 12.3 23 Sur 41 Sudoeste 0.1 925 -2.6 89
2019-11-22 16:00:00 12 22 Sur 42 Sur 0 925.5 -3.8 93
2019-11-22 15:00:00 11.3 24 Sur 42 Sur 0.6 926.1 -4.9 94
2019-11-22 14:00:00 10.5 24 Sur 52 Sur 0.9 927.6 -4.8 93
2019-11-22 13:00:00 10.5 31 Sur 54 Sudoeste 0.2 929.3 -4 91
2019-11-22 12:00:00 10.9 27 Sur 42 Sur 0 931 -3.5 88
2019-11-22 11:00:00 9.9 26 Sur 39 Sudeste 0.1 932.4 -2.9 92
2019-11-22 10:00:00 8.9 21 Sur 30 Sur 1.1 933.3 -2.3 94
2019-11-22 09:00:00 8.4 14 Sur 26 Sur 1.1 934.5 -2 94
2019-11-22 08:00:00 8.2 12 Sur 26 Sur 0.1 935.3 -1.7 94
2019-11-22 07:00:00 7.9 14 Sur 18 Sur 0.4 935.6 -2.2 94
2019-11-22 06:00:00 7.7 13 Sur 18 Sur 0 936.5 -1.9 93
2019-11-22 05:00:00 7.3 8 Sur 13 Sudeste 0 937 -1.7 95
2019-11-22 04:00:00 7.5 5 Sur 9 Sur 0 937.8 -1.8 95
2019-11-22 03:00:00 7.5 5 Sudeste 8 Sudeste 0 938.4 -1.6 95
2019-11-22 02:00:00 7.5 0 Calma 4 Este 0 938.7 -2 94
2019-11-22 01:00:00 7.6 3 Sur 8 Sur 0 939.6 -1.3 93
2019-11-22 00:00:00 7.8 6 Sudeste 8 Sudeste 0 940 -0.2 92
2019-11-21 23:00:00 8.3 3 Sudeste 13 Sur 0 940.7 0.3 90
2019-11-21 22:00:00 8.6 5 Sur 15 Sudoeste 0 940.9 0.8 87
2019-11-21 21:00:00 8.7 12 Sudoeste 17 Sur 0 940.2 0.4 85
2019-11-21 20:00:00 8.4 8 Sur 15 Sudoeste 0 940.4 0.8 87
2019-11-21 19:00:00 9.3 8 Sur 18 Sudoeste 0 940.1 0.4 84
2019-11-21 18:00:00 9.4 6 Sudoeste 22 Sudoeste 0 939.8 -0.1 83
2019-11-21 17:00:00 10 10 Sur 24 Sudoeste 0 939.6 -0.6 82
2019-11-21 16:00:00 10.2 12 Oeste 28 Sudoeste 0 939.7 -1 79
2019-11-21 15:00:00 9.9 15 Sudoeste 28 Sudoeste 0 939.9 -1.5 82
2019-11-21 14:00:00 9 11 Sur 24 Sudoeste 0 940.2 -1.2 90
2019-11-21 13:00:00 7.5 7 Norte 9 Norte 0.6 940.7 -0.5 94
2019-11-21 12:00:00 7 5 Norte 11 Norte 0.4 941.4 0.4 93
2019-11-21 11:00:00 7.5 8 Norte 24 Sudoeste 0 941.4 0.6 90
2019-11-21 10:00:00 7.2 9 Sur 17 Sudoeste 0 941.2 0.8 94
2019-11-21 09:00:00 6.7 7 Sur 15 Sudoeste 0 941 0.6 95
2019-11-21 08:00:00 6.5 7 Sur 13 Sur 0.3 940.8 0.1 95
2019-11-21 07:00:00 6.5 7 Sudeste 13 Sur 0 940.4 -0.7 95
2019-11-21 06:00:00 6.5 6 Este 13 Sur 0 940.4 -0.7 94
2019-11-21 05:00:00 6.5 5 Sur 13 Sur 0 940.7 -0.4 94
2019-11-21 04:00:00 6.3 6 Sur 11 Sudeste 0 941.1 -0.3 95
2019-11-21 03:00:00 6.2 7 Sudeste 11 Sur 0 941.1 -0.4 95
2019-11-21 02:00:00 6.3 5 Sudeste 13 Sur 0 941.1 -0.3 95
2019-11-21 01:00:00 6.1 8 Sur 11 Sur 0 941.4 -0.1 96
2019-11-21 00:00:00 5.9 5 Sudeste 8 Sudeste 0 941.5 0 95
2019-11-20 23:00:00 5.8 4 Sudeste 5 Sudeste 0 941.4 0 95
2019-11-20 22:00:00 5.7 3 Este 8 Sudoeste 0.4 941.5 0.2 94
2019-11-20 21:00:00 5.7 2 Este 5 Nordeste 0.6 941.5 0.3 93
2019-11-20 20:00:00 5.8 3 Nordeste 8 Nordeste 0.9 941.4 -- 93
2019-11-20 19:00:00 6.3 8 Noroeste 15 Oeste 0.7 941.3 0.2 89
2019-11-20 18:00:00 6.8 9 Oeste 18 Oeste 0 941.2 -0.2 85
2019-11-20 17:00:00 7.8 10 Sudoeste 26 Sudoeste 1 941.2 -0.8 80
2019-11-20 16:00:00 9 9 Sur 22 Sudoeste 0 941.1 -1.8 69
2019-11-20 15:00:00 9 6 Sur 13 Sur 0 941.4 -2.3 65
2019-11-20 14:00:00 8.8 4 Sur 15 Sudoeste 0 942 -2.4 66
2019-11-20 13:00:00 7.9 3 Sur 13 Sudoeste 0 942.9 -1.6 70
2019-11-20 12:00:00 6 2 Este 9 Norte 0 943.7 -0.9 77
2019-11-20 11:00:00 4.3 4 Noroeste 8 Norte 0 944.4 0 83
2019-11-20 10:00:00 2.5 4 Norte 8 Norte 0 944.5 0 88
2019-11-20 09:00:00 -0.1 5 Norte 9 Norte 0 944.6 -0.1 94
2019-11-20 08:00:00 -0.5 6 Norte 8 Norte 0 944.4 -0.5 94
2019-11-20 07:00:00 -0.3 6 Norte 8 Norte 0 944.5 -0.9 93
2019-11-20 06:00:00 0 5 Norte 8 Norte 0 944.7 -1 93
2019-11-20 05:00:00 0.4 5 Norte 8 Norte 0 944.9 -1 92
2019-11-20 04:00:00 0.8 5 Norte 8 Norte 0 945.4 -1 91
2019-11-20 03:00:00 1.4 5 Norte 8 Norte 0 945.7 -1.1 91
2019-11-20 02:00:00 1.6 5 Norte 9 Noroeste 0 945.9 -1.3 90
2019-11-20 01:00:00 2.2 6 Norte 9 Norte 0 946.4 -0.7 88
2019-11-20 00:00:00 3.2 4 Noroeste 8 Norte 0 946.8 -0.4 85
2019-11-19 23:00:00 4.5 5 Nordeste 8 Sur 0 947.2 0.1 82
2019-11-19 22:00:00 5.1 0 Calma 8 Sur 0 947.1 0.1 79
2019-11-19 21:00:00 5.8 4 Sudeste 8 Sudeste 0 947.2 0.2 76
2019-11-19 20:00:00 6 3 Sudeste 9 Sur 0 947.1 0.1 73
2019-11-19 19:00:00 7.5 8 Sur 13 Sur 0 947 -0.2 66
2019-11-19 18:00:00 8.8 9 Sur 26 Sudoeste 0 947 -0.6 60
2019-11-19 17:00:00 9.9 10 Sur 35 Sudoeste 0 947 -1.3 55
2019-11-19 16:00:00 10.2 10 Sudoeste 35 Sudoeste 0 947.2 -1.9 54
2019-11-19 15:00:00 10.4 13 Sudoeste 32 Sur 0 947.6 -2.4 53
2019-11-19 14:00:00 9.8 10 Sur 24 Sudoeste 0 948.3 -2.3 58
2019-11-19 13:00:00 9 7 Sur 21 Sur 0 949.1 -1.6 60
2019-11-19 12:00:00 7.3 6 Sudeste 18 Sur 0 950 -0.5 64
2019-11-19 11:00:00 5.6 6 Sur 11 Sudoeste 0 950.6 0.5 71
2019-11-19 10:00:00 3.5 2 Este 9 Norte 0 950.7 0.7 79
2019-11-19 09:00:00 -1.2 9 Norte 11 Norte 0 950.5 0.7 92
2019-11-19 08:00:00 -2.4 3 Noroeste 8 Nordeste 0 950.1 0.4 92
2019-11-19 07:00:00 -1.7 8 Norte 9 Nordeste 0 950 0.2 92
2019-11-19 06:00:00 -1.5 5 Noroeste 8 Noroeste 0 949.8 0 91
2019-11-19 05:00:00 -1.3 5 Norte 11 Nordeste 0 949.7 -0.1 91
2019-11-19 04:00:00 -0.6 2 Norte 8 Noroeste 0 949.8 -0.3 90
2019-11-19 03:00:00 -0.3 6 Norte 13 Norte 0 949.8 -0.6 89
2019-11-19 02:00:00 0.5 8 Noroeste 9 Noroeste 0 949.8 -0.4 85
2019-11-19 01:00:00 1.2 6 Nordeste 9 Nordeste 0 950.1 0.3 83
2019-11-19 00:00:00 2.1 3 Sudeste 9 Nordeste 0 950.4 1.1 79
2019-11-18 23:00:00 3.5 8 Oeste 13 Oeste 0 950.2 1.2 73
2019-11-18 22:00:00 5.1 7 Nordeste 13 Norte 0 949.8 1.3 65
2019-11-18 21:00:00 4.9 6 Nordeste 15 Norte 0 949.3 1.2 66
2019-11-18 20:00:00 5.9 7 Sudeste 15 Oeste 0 949 1.3 65
2019-11-18 19:00:00 7.6 13 Norte 28 Norte 0 948.5 1.3 57
2019-11-18 18:00:00 8.3 14 Norte 35 Nordeste 0 948.1 1.3 56
2019-11-18 17:00:00 9.8 23 Norte 45 Norte 0 947.7 0.9 50
2019-11-18 16:00:00 11.5 30 Norte 45 Norte 0 947.2 0.5 43
2019-11-18 15:00:00 11.5 27 Norte 41 Norte 0 946.8 -0.3 44
2019-11-18 14:00:00 11.2 21 Norte 42 Norte 0 946.8 0 49
2019-11-18 13:00:00 11.4 23 Norte 35 Nordeste 0 946.7 0.4 50
2019-11-18 12:00:00 10.6 17 Norte 33 Norte 0 947.1 1.6 53
2019-11-18 11:00:00 9.7 18 Norte 32 Norte 0 946.8 1.8 56
2019-11-18 10:00:00 7.2 12 Norte 21 Norte 0 946.3 1.9 67
2019-11-18 09:00:00 4.3 3 Sudoeste 18 Norte 0 945.5 1.5 79
2019-11-18 08:00:00 5 14 Norte 28 Norte 0 945 1.2 73
2019-11-18 07:00:00 4.2 10 Norte 21 Noroeste 0 944.4 1.3 81
2019-11-18 06:00:00 2.2 10 Oeste 18 Noroeste 0 944 1.3 94
2019-11-18 05:00:00 2.1 3 Sur 11 Este 0 943.8 0.9 93
2019-11-18 04:00:00 3.2 0 Calma 13 Sudeste 0 943.1 0.6 93
2019-11-18 03:00:00 3.5 10 Oeste 15 Noroeste 0 942.7 0.6 94
2019-11-18 02:00:00 3.8 5 Nordeste 11 Sudeste 0 942.9 1.2 92
2019-11-18 01:00:00 4.8 9 Sudeste 15 Sudeste 0 942.5 1 88
2019-11-18 00:00:00 6.3 9 Norte 13 Norte 0 942.1 0.9 82
2019-11-17 23:00:00 8.1 9 Norte 26 Noroeste 0 941.7 0 75
2019-11-17 22:00:00 8 7 Noroeste 21 Norte 0 941.5 -0.9 77
2019-11-17 21:00:00 8.4 16 Sudoeste 46 Sudoeste 0 941.2 -1.3 79
2019-11-17 20:00:00 8.5 22 Sudoeste 37 Oeste 1 941.7 -1 85
2019-11-17 19:00:00 8.2 24 Sudoeste 32 Sudoeste 0.9 942.4 -1 90
2019-11-17 18:00:00 8 10 Sur 24 Sudoeste 0 942.5 -1.4 86
2019-11-17 17:00:00 7.9 13 Sur 42 Sudoeste 0 942.7 -1.8 85
2019-11-17 16:00:00 8.3 18 Sudoeste 37 Sudoeste 0 943.4 -1.9 84
2019-11-17 15:00:00 8.1 17 Sudoeste 41 Sudoeste 0.1 943.9 -2.6 85
2019-11-17 14:00:00 8.5 23 Sudoeste 50 Sudoeste 0 944.5 -2.3 74
2019-11-17 13:00:00 8.3 21 Sudoeste 54 Sur 0 945.3 -1.6 68
2019-11-17 12:00:00 6.5 14 Sur 35 Sudoeste 0 946.5 -0.4 70
2019-11-17 11:00:00 5.5 14 Sur 28 Sudoeste 0 946.8 0.1 78
2019-11-17 10:00:00 4.1 12 Sudeste 18 Sur 0 946.9 -0.1 77
2019-11-17 09:00:00 3.2 11 Sudeste 18 Sur 0 946.9 -0.1 78
2019-11-17 08:00:00 1.6 11 Sudeste 18 Sudoeste 0 946.7 -0.5 81
2019-11-17 07:00:00 0.9 6 Sudeste 9 Sudeste 0 947 -0.5 83
2019-11-17 06:00:00 0.8 6 Sudeste 9 Este 0 947 -0.4 81
2019-11-17 05:00:00 1.3 8 Este 13 Este 0 947.2 -0.2 79
2019-11-17 04:00:00 1.8 8 Este 13 Sudeste 0 947.5 -0.6 76
2019-11-17 03:00:00 3.4 7 Sudeste 11 Sudeste 0 947.4 -0.6 67
2019-11-17 02:00:00 4 7 Oeste 15 Oeste 0 947.4 -0.6 64
2019-11-17 01:00:00 5.2 9 Oeste 22 Oeste 0 948.1 0.4 58
2019-11-17 00:00:00 6 12 Oeste 35 Oeste 0 948 0.3 56
2019-11-16 23:00:00 6.6 18 Oeste 37 Oeste 0 948 0.4 54
2019-11-16 22:00:00 6.7 28 Oeste 39 Oeste 0 947.7 0.5 58
2019-11-16 21:00:00 7.1 21 Oeste 35 Oeste 0 947.7 0.8 54
2019-11-16 20:00:00 7.9 20 Oeste 35 Oeste 0 947.6 0.8 50
2019-11-16 19:00:00 8.3 15 Oeste 30 Oeste 0 947.2 0.9 49
2019-11-16 18:00:00 9 14 Oeste 26 Noroeste 0 946.9 1 46
2019-11-16 17:00:00 9.7 21 Oeste 30 Noroeste 0 946.8 0.9 42
2019-11-16 16:00:00 11.2 10 Norte 28 Norte 0 946.3 -0.1 41
2019-11-16 15:00:00 11.6 17 Oeste 28 Oeste 0 945.9 -0.8 34
2019-11-16 14:00:00 10.7 10 Sudeste 22 Sur 0 945.9 -0.8 46
2019-11-16 13:00:00 9.8 9 Sudeste 21 Sur 0 946.4 0.2 49
2019-11-16 12:00:00 8.3 10 Sudeste 18 Sur 0 946.7 1.1 55
2019-11-16 11:00:00 7.3 7 Sudeste 13 Sudeste 0 946.7 1.7 60
2019-11-16 10:00:00 5.1 4 Este 9 Este 0 946.2 2 69
2019-11-16 09:00:00 1.1 2 Nordeste 9 Sur 0 945.6 2.4 84
2019-11-16 08:00:00 1 4 Nordeste 13 Noroeste 0 945 2.4 81
2019-11-16 07:00:00 0.9 10 Noroeste 15 Noroeste 0 944.2 2.1 81
2019-11-16 06:00:00 1.7 10 Noroeste 15 Norte 0 943.2 1.9 79
2019-11-16 05:00:00 2 10 Norte 15 Norte 0 942.6 1.7 79
2019-11-16 04:00:00 1.7 4 Este 9 Nordeste 0 942.1 1.4 80
2019-11-16 03:00:00 2.9 7 Este 13 Nordeste 0 941.3 1 77
2019-11-16 02:00:00 3.2 2 Noroeste 11 Noroeste 0 940.9 1 74
2019-11-16 01:00:00 5.1 8 Norte 21 Oeste 0 940.7 1.4 66
2019-11-16 00:00:00 6.3 18 Noroeste 33 Oeste 0 940.3 1.7 62
2019-11-15 23:00:00 6.8 23 Oeste 33 Oeste 0 939.9 1.7 59
2019-11-15 22:00:00 7.4 24 Oeste 37 Oeste 0 939.3 1.4 57
2019-11-15 21:00:00 8 17 Oeste 30 Noroeste 0 938.6 1 53
2019-11-15 20:00:00 7.7 14 Oeste 22 Oeste 0 938.2 0.8 54
2019-11-15 19:00:00 8 12 Oeste 26 Oeste 0 937.9 0.8 53
2019-11-15 18:00:00 8.2 15 Oeste 22 Oeste 0 937.6 0.8 50
2019-11-15 17:00:00 9 17 Oeste 28 Oeste 0 937.4 0.4 47
2019-11-15 16:00:00 9.4 18 Noroeste 33 Noroeste 0 937.1 0.1 46
2019-11-15 15:00:00 9.6 22 Noroeste 39 Noroeste 0 936.8 -0.9 47
2019-11-15 14:00:00 9.2 28 Noroeste 37 Noroeste 0 937 -0.6 52
2019-11-15 13:00:00 8.8 23 Oeste 35 Oeste 0 937 -0.3 53
2019-11-15 12:00:00 8.7 18 Oeste 28 Oeste 0 937.7 0.8 57
2019-11-15 11:00:00 6.7 18 Oeste 32 Oeste 0 937.6 1.5 64
2019-11-15 10:00:00 5.8 16 Oeste 26 Oeste 0 937.3 1.6 68
2019-11-15 09:00:00 5.1 16 Noroeste 30 Oeste 0 936.9 1.5 73
2019-11-15 08:00:00 5 16 Oeste 24 Oeste 0 936.1 0.8 71
2019-11-15 07:00:00 4.9 16 Oeste 24 Oeste 0 935.7 0.7 72
2019-11-15 06:00:00 4.3 13 Sudoeste 22 Oeste 0 935.4 0.4 71
2019-11-15 05:00:00 4.1 6 Sudeste 15 Sudoeste 0 935.3 0.1 72
2019-11-15 04:00:00 5.7 11 Sudoeste 32 Oeste 0 935 0 65
2019-11-15 03:00:00 5.5 17 Oeste 41 Oeste 0 935 -0.4 68
2019-11-15 02:00:00 5.7 15 Oeste 32 Oeste 0 935.2 0.6 68
2019-11-15 01:00:00 6.3 25 Oeste 37 Oeste 0 935 1.2 65
2019-11-15 00:00:00 6.3 17 Oeste 28 Oeste 0 935.4 2.4 66